Accueil
METAR-TAF:

METAR-TAF

Aéroports :

Cognac, France

Base aérienne 709 Cognac-Châteaubernard

latitude: 45-40N, longitude: 000-19W, altitude: 30 m

Observation

Le bulletin a été fait il y a 18 minutes, à 19:00 UTC
Vent 4 kt de sud, variant entre sud/sud-est et sud/sud-ouest
Température 8°C
Humidité 100%
Pression 1018 hPa
Visibilité: 4700 m
Ciel couvert à une hauteur de 200 ft
brume

METAR: LFBG 211900Z AUTO 18004KT 150V210 4700 BR OVC002 08/08 Q1018

Heure: 20:18 (19:18 UTC)

Prévision

Le bulletin a été fait il y a 5 heures et 18 minutes, à 14:00 UTC
Prévision valable du 21 à 15 UTC au 22 à 15 UTC
Vent 8 kt de sud
Visibilité: 3000 m
Nuages fragmentés à une hauteur de 200 ft
brume
Evoluant progressivement
du 22 à 07 UTC au 22 à 09 UTC
Visibilité 10 km ou plus
pas de nuages en-dessous de 1500 mètres et pas de cumulonimbus.

TAF: LFBG 211400Z 2115/2215 18008KT 3000 BR BKN002 BECMG 2207/2209 CAVOK

Observations et prévisions météorologiques de plus de 4000 aéroports (messages METAR et TAF).

Les stations disponibles sont représentées par des disques jaunes et rouges sur la carte.

Passer la souris dessus pour voir le nom de la station.

Cliquer dessus pour voir les observations et prévisions météorologiques.

Pour changer de carte: cliquez sur les boutons verts avec une croix noire pour zoomer, sur le bouton vert avec un tiret pour effectuer un zoom arrière, ou sur les flèches vertes pour les cartes adjacentes.


METAR-TAF: